createdAt,value
2018-10-18T00:00:16.081Z,60.2
2018-10-18T00:01:05.267Z,60.2
2018-10-18T00:01:54.714Z,60.2
2018-10-18T00:02:44.577Z,60.2
2018-10-18T00:03:35.532Z,60.2
2018-10-18T00:04:25.252Z,60.2
2018-10-18T00:05:15.060Z,60.1
2018-10-18T00:06:05.569Z,60.2
2018-10-18T00:06:54.916Z,60.1
2018-10-18T00:25:10.387Z,60
2018-10-18T00:26:00.811Z,60
2018-10-18T00:26:50.211Z,60
2018-10-18T00:27:40.534Z,59.9
2018-10-18T00:28:30.553Z,59.9
2018-10-18T00:29:20.406Z,59.9
2018-10-18T00:30:11.267Z,59.9
2018-10-18T00:31:00.793Z,59.9
2018-10-18T00:31:50.555Z,59.9
2018-10-18T00:32:40.941Z,59.9
2018-10-18T00:33:30.501Z,59.9
2018-10-18T00:34:21.044Z,59.9
2018-10-18T00:35:11.595Z,59.9
2018-10-18T00:36:01.594Z,59.9
2018-10-18T00:36:50.929Z,59.9
2018-10-18T00:37:41.278Z,59.9
2018-10-18T00:38:31.038Z,59.9
2018-10-18T00:39:21.399Z,59.9
2018-10-18T00:40:11.172Z,59.9
2018-10-18T00:41:01.779Z,59.9
2018-10-18T00:41:51.303Z,59.9
2018-10-18T00:42:41.348Z,59.8
2018-10-18T00:43:31.115Z,59.8
2018-10-18T00:44:21.984Z,59.8
2018-10-18T00:45:11.544Z,59.8
2018-10-18T00:46:02.124Z,59.8
2018-10-18T00:46:50.813Z,59.8
2018-10-18T00:47:41.742Z,59.8
2018-10-18T00:48:32.024Z,59.8
2018-10-18T00:49:22.140Z,59.8
2018-10-18T00:50:12.431Z,59.8
2018-10-18T00:51:02.545Z,59.8
2018-10-18T00:51:51.735Z,59.8
2018-10-18T00:52:41.796Z,59.8
2018-10-18T00:53:32.435Z,59.8
2018-10-18T00:54:22.511Z,59.8
2018-10-18T00:55:12.071Z,59.8
2018-10-18T00:56:02.722Z,59.7
2018-10-18T00:56:52.736Z,59.7
2018-10-18T00:57:42.772Z,59.7
2018-10-18T00:58:32.657Z,59.7
2018-10-18T00:59:22.890Z,59.7
2018-10-18T01:00:13.756Z,59.7
2018-10-18T01:01:02.469Z,59.7
2018-10-18T01:01:52.673Z,59.7
2018-10-18T01:02:43.132Z,59.7
2018-10-18T01:03:32.898Z,59.6
2018-10-18T01:04:23.221Z,59.6
2018-10-18T01:05:13.286Z,59.6
2018-10-18T01:06:03.680Z,59.6
2018-10-18T01:06:53.422Z,59.6
2018-10-18T01:07:43.481Z,59.6
2018-10-18T01:08:32.964Z,59.6
2018-10-18T01:09:23.306Z,59.6
2018-10-18T01:10:13.391Z,59.6
2018-10-18T01:11:03.458Z,59.6
2018-10-18T01:11:54.006Z,59.6
2018-10-18T01:12:44.326Z,59.6
2018-10-18T01:13:33.629Z,59.6
2018-10-18T01:14:23.696Z,59.6
2018-10-18T01:15:14.086Z,59.6
2018-10-18T01:16:04.111Z,59.6
2018-10-18T01:16:54.174Z,59.6
2018-10-18T01:17:43.729Z,59.5
2018-10-18T01:18:33.746Z,59.5
2018-10-18T01:19:24.171Z,59.5
2018-10-18T01:20:15.801Z,59.5
2018-10-18T01:21:04.520Z,59.5
2018-10-18T01:21:54.286Z,59.5
2018-10-18T01:22:44.349Z,59.5
2018-10-18T01:23:34.350Z,59.4
2018-10-18T01:24:24.461Z,59.5
2018-10-18T01:25:14.510Z,59.4
2018-10-18T01:26:05.119Z,59.4
2018-10-18T01:26:55.164Z,59.4
2018-10-18T01:27:44.947Z,59.4
2018-10-18T01:28:34.737Z,59.4
2018-10-18T01:29:24.767Z,59.4
2018-10-18T01:30:15.929Z,59.4
2018-10-18T01:31:05.145Z,59.4
2018-10-18T01:31:55.184Z,59.4
2018-10-18T01:32:45.325Z,59.4
2018-10-18T01:33:35.119Z,59.4
2018-10-18T01:34:25.173Z,59.4
2018-10-18T01:35:14.942Z,59.4
2018-10-18T01:36:05.890Z,59.4
2018-10-18T01:36:55.647Z,59.4
2018-10-18T01:37:45.702Z,59.4
2018-10-18T01:38:36.066Z,59.3
2018-10-18T01:39:25.811Z,59.3
2018-10-18T01:40:15.904Z,59.3
2018-10-18T01:41:05.377Z,59.3
2018-10-18T01:41:56.279Z,59.3
2018-10-18T01:42:46.112Z,59.3
2018-10-18T01:43:35.851Z,59.3
2018-10-18T01:44:26.250Z,59.3
2018-10-18T01:45:16.221Z,59.3
2018-10-18T01:46:06.284Z,59.3
2018-10-18T01:46:56.080Z,59.3
2018-10-18T01:47:45.874Z,59.3
2018-10-18T01:48:35.971Z,59.3
2018-10-18T01:49:26.814Z,59.3
2018-10-18T01:50:18.075Z,59.3
2018-10-18T01:51:06.671Z,59.3
2018-10-18T01:51:55.899Z,59.2
2018-10-18T01:52:45.341Z,59.2
2018-10-18T01:53:36.583Z,59.2
2018-10-18T01:54:26.629Z,59.2
2018-10-18T01:55:16.963Z,59.2
2018-10-18T01:56:08.130Z,59.2
2018-10-18T01:56:57.089Z,59.2
2018-10-18T01:57:46.908Z,59.2
2018-10-18T01:58:36.920Z,59.2
2018-10-18T01:59:27.026Z,59.1
2018-10-18T02:00:18.529Z,59.1
2018-10-18T02:01:07.413Z,59.2
2018-10-18T02:01:57.513Z,59.1
2018-10-18T02:02:47.536Z,59.1
2018-10-18T02:03:37.575Z,59.1
2018-10-18T02:04:27.710Z,59.1
2018-10-18T02:05:17.523Z,59.1
2018-10-18T02:06:08.777Z,59.1
2018-10-18T02:06:57.840Z,59.1
2018-10-18T02:07:47.623Z,59.1
2018-10-18T02:08:37.675Z,59.1
2018-10-18T02:09:27.209Z,59.1
2018-10-18T02:10:18.062Z,59.1
2018-10-18T02:11:07.830Z,59.1
2018-10-18T02:11:57.856Z,59.1
2018-10-18T02:12:48.271Z,59.1
2018-10-18T02:13:39.036Z,59.1
2018-10-18T02:14:28.432Z,59.1
2018-10-18T02:15:18.710Z,59
2018-10-18T02:16:08.507Z,59
2018-10-18T02:16:58.603Z,59
2018-10-18T02:17:48.339Z,59
2018-10-18T02:18:38.679Z,59
2018-10-18T02:19:28.776Z,59
2018-10-18T02:20:18.802Z,58.9
2018-10-18T02:21:08.906Z,58.9
2018-10-18T02:21:59.004Z,59
2018-10-18T02:22:48.697Z,58.9
2018-10-18T02:23:39.042Z,58.9
2018-10-18T02:24:28.864Z,58.9
2018-10-18T02:25:20.451Z,58.9
2018-10-18T02:26:09.252Z,58.9
2018-10-18T02:26:59.300Z,58.9
2018-10-18T02:27:49.324Z,58.9
2018-10-18T02:28:39.116Z,58.9
2018-10-18T02:29:29.236Z,58.9
2018-10-18T02:30:20.821Z,58.9
2018-10-18T02:31:09.419Z,58.9
2018-10-18T02:31:59.403Z,58.9
2018-10-18T02:32:49.731Z,58.9
2018-10-18T02:33:39.495Z,58.9
2018-10-18T02:34:29.869Z,58.9
2018-10-18T02:35:19.745Z,58.9
2018-10-18T02:36:11.013Z,58.8
2018-10-18T02:36:59.474Z,58.8
2018-10-18T02:37:50.108Z,58.8
2018-10-18T02:38:40.196Z,58.8
2018-10-18T02:39:29.915Z,58.8
2018-10-18T02:40:20.008Z,58.8
2018-10-18T02:41:09.783Z,58.8
2018-10-18T02:42:00.452Z,58.8
2018-10-18T02:42:50.496Z,58.8
2018-10-18T02:43:39.957Z,58.8
2018-10-18T02:44:30.340Z,58.8
2018-10-18T02:45:20.677Z,58.8
2018-10-18T02:46:10.744Z,58.8
2018-10-18T02:47:00.523Z,58.8
2018-10-18T02:47:50.853Z,58.8
2018-10-18T02:48:40.916Z,58.8
2018-10-18T02:49:30.943Z,58.8
2018-10-18T02:50:20.767Z,58.7
2018-10-18T02:51:11.135Z,58.7
2018-10-18T02:52:00.845Z,58.7
2018-10-18T02:52:51.315Z,58.7
2018-10-18T02:53:41.314Z,58.7
2018-10-18T02:54:31.378Z,58.7
2018-10-18T02:55:20.812Z,58.7
2018-10-18T02:56:11.094Z,58.7
2018-10-18T02:57:01.525Z,58.7
2018-10-18T02:57:51.281Z,58.6
2018-10-18T02:58:41.616Z,58.6
2018-10-18T02:59:31.194Z,58.6
2018-10-18T03:00:21.886Z,58.6
2018-10-18T03:01:11.260Z,58.6
2018-10-18T03:02:01.870Z,58.6
2018-10-18T03:02:51.359Z,58.6
2018-10-18T03:03:42.036Z,58.6
2018-10-18T03:04:32.067Z,58.6
2018-10-18T03:11:11.991Z,58.5
2018-10-18T03:12:52.407Z,58.5
2018-10-18T03:13:42.183Z,58.5
2018-10-18T03:14:32.770Z,58.5
2018-10-18T03:15:22.876Z,58.5
2018-10-18T03:16:14.527Z,58.5
2018-10-18T03:17:02.760Z,58.5
2018-10-18T03:17:53.091Z,58.5
2018-10-18T03:18:42.804Z,58.5
2018-10-18T03:19:32.018Z,58.4
2018-10-18T03:20:22.979Z,58.4
2018-10-18T03:21:13.011Z,58.4
2018-10-18T03:22:03.144Z,58.4
2018-10-18T03:22:53.228Z,58.4
2018-10-18T03:23:43.729Z,58.4
2018-10-18T03:24:33.799Z,58.4
2018-10-18T03:25:24.154Z,58.4
2018-10-18T03:26:13.663Z,58.4
2018-10-18T03:27:03.710Z,58.4
2018-10-18T03:27:53.800Z,58.4
2018-10-18T03:28:43.255Z,58.4
2018-10-18T03:29:33.322Z,58.4
2018-10-18T03:30:25.248Z,58.4
2018-10-18T03:31:13.794Z,58.4
2018-10-18T03:32:04.248Z,58.4
2018-10-18T03:32:53.581Z,58.3
2018-10-18T03:33:44.251Z,58.3
2018-10-18T03:34:34.275Z,58.3
2018-10-18T03:35:24.308Z,58.3
2018-10-18T03:36:15.052Z,58.3
2018-10-18T03:37:04.453Z,58.3
2018-10-18T03:37:54.467Z,58.3
2018-10-18T03:38:43.995Z,58.3
2018-10-18T03:39:34.635Z,58.3
2018-10-18T03:40:24.717Z,58.3
2018-10-18T03:41:14.224Z,58.3
2018-10-18T03:42:04.750Z,58.3
2018-10-18T03:42:54.659Z,58.3
2018-10-18T03:43:44.980Z,58.3
2018-10-18T03:44:35.028Z,58.3
2018-10-18T03:45:25.051Z,58.2
2018-10-18T03:46:15.153Z,58.3
2018-10-18T03:47:05.235Z,58.2
2018-10-18T03:47:55.127Z,58.2
2018-10-18T03:48:45.410Z,58.2
2018-10-18T03:49:35.371Z,58.2
2018-10-18T03:50:25.442Z,58.2
2018-10-18T03:51:15.450Z,58.2
2018-10-18T03:52:05.289Z,58.2
2018-10-18T03:52:55.659Z,58.1
2018-10-18T03:53:45.778Z,58.2
2018-10-18T03:54:35.848Z,58.1
2018-10-18T03:55:25.808Z,58.1
2018-10-18T03:56:15.232Z,58.1
2018-10-18T03:57:05.639Z,58.1
2018-10-18T03:57:55.970Z,58.1
2018-10-18T03:58:45.505Z,58.1
2018-10-18T03:59:36.936Z,58.1
2018-10-18T04:00:25.935Z,58.1
2018-10-18T04:01:15.971Z,58.1
2018-10-18T04:02:06.272Z,58.1
2018-10-18T04:02:55.774Z,58.1
2018-10-18T04:03:46.116Z,58.1
2018-10-18T04:04:36.479Z,58.1
2018-10-18T04:05:26.518Z,58.1
2018-10-18T04:06:17.593Z,58.1
2018-10-18T04:07:06.650Z,58.1
2018-10-18T04:07:56.418Z,58
2018-10-18T04:08:46.484Z,58
2018-10-18T04:09:36.544Z,58
2018-10-18T04:10:26.884Z,58
2018-10-18T04:11:16.939Z,58
2018-10-18T04:12:08.176Z,58
2018-10-18T04:12:58.153Z,58
2018-10-18T04:13:47.203Z,58
2018-10-18T04:14:36.933Z,57.9
2018-10-18T04:15:26.964Z,58
2018-10-18T04:16:17.296Z,57.9
2018-10-18T04:17:07.103Z,57.9
2018-10-18T04:17:58.669Z,57.9
2018-10-18T04:18:47.255Z,57.9
2018-10-18T04:19:37.298Z,57.9
2018-10-18T04:20:27.613Z,57.9
2018-10-18T04:21:17.706Z,57.9
2018-10-18T04:22:07.173Z,57.9
2018-10-18T04:22:57.533Z,57.9
2018-10-18T04:23:47.610Z,57.9
2018-10-18T04:24:37.425Z,57.9
2018-10-18T04:25:28.596Z,57.9
2018-10-18T04:26:18.064Z,57.9
2018-10-18T04:27:07.865Z,57.9
2018-10-18T04:27:58.194Z,57.9
2018-10-18T04:28:48.017Z,57.8
2018-10-18T04:29:38.478Z,57.8
2018-10-18T04:30:28.215Z,57.8
2018-10-18T04:31:18.172Z,57.8
2018-10-18T04:32:07.640Z,57.8
2018-10-18T04:32:58.517Z,57.8
2018-10-18T04:33:48.317Z,57.8
2018-10-18T04:34:38.672Z,57.8
2018-10-18T04:35:28.246Z,57.8
2018-10-18T04:54:36.680Z,57.6
2018-10-18T04:55:26.541Z,57.6
2018-10-18T04:56:16.640Z,57.6
2018-10-18T04:57:06.454Z,57.6
2018-10-18T04:57:56.159Z,57.6
2018-10-18T04:58:46.826Z,57.6
2018-10-18T04:59:36.873Z,57.6
2018-10-18T05:00:26.930Z,57.5
2018-10-18T05:01:17.613Z,57.6
2018-10-18T05:02:07.173Z,57.6
2018-10-18T05:02:57.925Z,57.5
2018-10-18T05:03:46.992Z,57.5
2018-10-18T05:04:37.256Z,57.5
2018-10-18T05:05:26.955Z,57.5
2018-10-18T05:06:17.317Z,57.5
2018-10-18T05:07:07.514Z,57.5
2018-10-18T05:07:57.466Z,57.5
2018-10-18T05:08:47.549Z,57.5
2018-10-18T05:09:37.296Z,57.4
2018-10-18T05:10:27.950Z,57.4
2018-10-18T05:11:17.946Z,57.4
2018-10-18T05:12:07.739Z,57.4
2018-10-18T05:12:57.949Z,57.4
2018-10-18T05:13:47.882Z,57.4
2018-10-18T05:14:37.364Z,57.4
2018-10-18T05:15:28.531Z,57.4
2018-10-18T05:16:18.067Z,57.4
2018-10-18T05:17:07.894Z,57.4
2018-10-18T05:17:57.611Z,57.4
2018-10-18T05:18:48.228Z,57.4
2018-10-18T05:19:38.077Z,57.4
2018-10-18T05:20:28.074Z,57.4
2018-10-18T05:21:18.701Z,57.3
2018-10-18T05:22:08.506Z,57.3
2018-10-18T05:22:58.547Z,57.3
2018-10-18T05:23:48.749Z,57.3
2018-10-18T05:24:38.449Z,57.3
2018-10-18T05:25:29.953Z,57.3
2018-10-18T05:26:18.756Z,57.3
2018-10-18T05:27:08.626Z,57.3
2018-10-18T05:27:58.910Z,57.3
2018-10-18T05:28:48.716Z,57.3
2018-10-18T05:29:38.813Z,57.3
2018-10-18T05:30:29.130Z,57.3
2018-10-18T05:31:19.995Z,57.3
2018-10-18T05:32:08.956Z,57.3
2018-10-18T05:32:58.439Z,57.3
2018-10-18T05:33:49.653Z,57.3
2018-10-18T05:34:39.827Z,57.3
2018-10-18T05:35:29.833Z,57.2
2018-10-18T05:36:19.869Z,57.2
2018-10-18T05:37:10.187Z,57.3
2018-10-18T05:37:59.369Z,57.2
2018-10-18T05:38:49.709Z,57.2
2018-10-18T05:39:39.784Z,57.2
2018-10-18T05:40:29.532Z,57.2
2018-10-18T05:41:19.908Z,57.2
2018-10-18T05:42:09.949Z,57.2
2018-10-18T05:43:00.357Z,57.2
2018-10-18T05:43:49.799Z,57.1
2018-10-18T05:44:40.184Z,57.1
2018-10-18T05:45:30.273Z,57.1
2018-10-18T05:46:20.263Z,57.1
2018-10-18T05:47:10.224Z,57.1
2018-10-18T05:48:00.397Z,57.1
2018-10-18T05:48:50.290Z,57.1
2018-10-18T05:49:40.294Z,57.1
2018-10-18T05:50:30.683Z,57.1
2018-10-18T05:51:20.694Z,57.1
2018-10-18T05:52:10.883Z,57.1
2018-10-18T05:53:01.300Z,57.1
2018-10-18T05:53:52.221Z,57.1
2018-10-18T05:54:40.617Z,57.1
2018-10-18T05:55:30.487Z,57
2018-10-18T05:56:21.055Z,57.1
2018-10-18T05:57:11.092Z,57.1
2018-10-18T05:58:01.307Z,57
2018-10-18T05:58:51.300Z,57
2018-10-18T05:59:41.423Z,57
2018-10-18T06:00:31.503Z,57
2018-10-18T06:01:22.076Z,57
2018-10-18T06:02:10.841Z,56.9
2018-10-18T06:03:01.204Z,57
2018-10-18T06:03:51.630Z,56.9
2018-10-18T06:04:41.343Z,56.9
2018-10-18T06:05:31.393Z,56.9
2018-10-18T06:06:21.248Z,56.9
2018-10-18T06:07:12.309Z,56.9
2018-10-18T06:08:01.553Z,56.9
2018-10-18T06:08:51.640Z,56.9
2018-10-18T06:09:41.989Z,56.9
2018-10-18T06:10:33.332Z,56.9
2018-10-18T06:11:22.100Z,56.9
2018-10-18T06:12:12.138Z,56.9
2018-10-18T06:13:02.704Z,56.9
2018-10-18T06:13:52.317Z,56.9
2018-10-18T06:14:42.346Z,56.9
2018-10-18T06:15:32.125Z,56.9
2018-10-18T06:16:22.459Z,56.9
2018-10-18T06:17:12.535Z,56.8
2018-10-18T06:18:02.310Z,56.8
2018-10-18T06:18:52.434Z,56.8
2018-10-18T06:19:42.491Z,56.8
2018-10-18T06:20:32.782Z,56.8
2018-10-18T06:21:22.810Z,56.8
2018-10-18T06:22:13.140Z,56.8
2018-10-18T06:23:03.290Z,56.8
2018-10-18T06:23:52.742Z,56.8
2018-10-18T06:24:43.100Z,56.8
2018-10-18T06:25:33.169Z,56.8
2018-10-18T06:26:23.222Z,56.8
2018-10-18T06:27:12.978Z,56.8
2018-10-18T06:28:02.778Z,56.8
2018-10-18T06:28:52.853Z,56.8
2018-10-18T06:29:43.485Z,56.8
2018-10-18T06:30:33.519Z,56.7
2018-10-18T06:31:23.290Z,56.7
2018-10-18T06:32:13.679Z,56.7
2018-10-18T06:33:04.144Z,56.7
2018-10-18T06:33:53.783Z,56.7
2018-10-18T06:34:43.801Z,56.7
2018-10-18T06:35:33.874Z,56.7
2018-10-18T06:36:23.956Z,56.7
2018-10-18T06:37:15.125Z,56.7
2018-10-18T06:38:04.095Z,56.6
2018-10-18T06:38:53.829Z,56.6
2018-10-18T06:39:43.881Z,56.6
2018-10-18T06:40:33.947Z,56.6
2018-10-18T06:41:24.003Z,56.6
2018-10-18T06:42:14.331Z,56.6
2018-10-18T06:43:04.191Z,56.6
2018-10-18T06:43:54.489Z,56.6
2018-10-18T06:44:44.256Z,56.6
2018-10-18T06:45:34.551Z,56.6
2018-10-18T06:46:24.097Z,56.6
2018-10-18T06:47:16.206Z,56.6
2018-10-18T06:48:05.499Z,56.6
2018-10-18T06:48:55.234Z,56.6
2018-10-18T06:49:44.313Z,56.6
2018-10-18T06:50:34.710Z,56.6
2018-10-18T06:51:24.433Z,56.5
2018-10-18T06:52:14.560Z,56.5
2018-10-18T06:53:05.295Z,56.5
2018-10-18T06:53:54.830Z,56.5
2018-10-18T06:54:44.753Z,56.5
2018-10-18T06:55:35.325Z,56.5
2018-10-18T06:56:24.838Z,56.4
2018-10-18T06:57:15.460Z,56.5
2018-10-18T06:58:04.982Z,56.4
2018-10-18T06:58:55.073Z,56.4
2018-10-18T06:59:46.372Z,56.4
2018-10-18T07:00:35.950Z,56.4
2018-10-18T07:01:25.520Z,56.4
2018-10-18T07:02:15.867Z,56.4
2018-10-18T07:03:05.657Z,56.4
2018-10-18T07:03:55.927Z,56.4
2018-10-18T07:04:45.456Z,56.4
2018-10-18T07:05:35.802Z,56.4
2018-10-18T07:06:26.151Z,56.4
2018-10-18T07:07:15.895Z,56.4
2018-10-18T07:08:06.243Z,56.4
2018-10-18T07:08:56.448Z,56.4
2018-10-18T07:09:45.786Z,56.4
2018-10-18T07:10:36.152Z,56.4
2018-10-18T07:11:26.205Z,56.4
2018-10-18T07:12:17.570Z,56.4
2018-10-18T07:13:06.591Z,56.3
2018-10-18T07:13:56.656Z,56.3
2018-10-18T07:14:46.781Z,56.3
2018-10-18T07:15:36.527Z,56.3
2018-10-18T07:16:26.853Z,56.3
2018-10-18T07:17:16.635Z,56.3
2018-10-18T07:18:07.835Z,56.3
2018-10-18T07:18:57.033Z,56.3
2018-10-18T07:19:46.801Z,56.3
2018-10-18T07:20:36.858Z,56.3
2018-10-18T07:21:26.641Z,56.3
2018-10-18T07:22:17.002Z,56.3
2018-10-18T07:23:07.349Z,56.3
2018-10-18T07:23:57.649Z,56.3
2018-10-18T07:24:47.233Z,56.3
2018-10-18T07:25:36.977Z,56.3
2018-10-18T07:26:27.317Z,56.2
2018-10-18T07:27:17.375Z,56.2
2018-10-18T07:28:07.428Z,56.2
2018-10-18T07:28:57.483Z,56.2
2018-10-18T07:29:47.838Z,56.2
2018-10-18T07:30:37.917Z,56.2
2018-10-18T07:31:28.198Z,56.2
2018-10-18T07:32:17.535Z,56.1
2018-10-18T07:33:08.110Z,56.1
2018-10-18T07:33:57.841Z,56.1
2018-10-18T07:34:48.574Z,56.1
2018-10-18T07:35:38.280Z,56.1
2018-10-18T07:36:28.062Z,56.1
2018-10-18T07:37:18.630Z,56.1
2018-10-18T07:38:07.967Z,56.1
2018-10-18T07:38:57.763Z,56.1
2018-10-18T07:39:48.567Z,56.1
2018-10-18T07:40:38.124Z,56.1
2018-10-18T07:41:28.245Z,56.1
2018-10-18T07:42:19.451Z,56.1
2018-10-18T07:43:08.544Z,56.1
2018-10-18T07:43:59.060Z,56.1
2018-10-18T07:44:48.942Z,56
2018-10-18T07:45:39.003Z,56.1
2018-10-18T07:46:28.827Z,56.1
2018-10-18T07:47:19.180Z,56.1
2018-10-18T07:48:10.190Z,56
2018-10-18T07:48:59.259Z,56
2018-10-18T07:49:49.019Z,56
2018-10-18T07:50:39.390Z,56
2018-10-18T07:51:29.437Z,56
2018-10-18T07:52:19.516Z,56
2018-10-18T07:53:11.494Z,55.9
2018-10-18T07:53:59.977Z,55.9
2018-10-18T07:54:49.703Z,55.9
2018-10-18T07:55:39.501Z,55.9
2018-10-18T07:56:29.844Z,55.9
2018-10-18T07:57:19.277Z,55.9
2018-10-18T07:58:09.662Z,55.9
2018-10-18T07:59:00.000Z,55.9
2018-10-18T07:59:50.041Z,55.9
2018-10-18T08:00:40.639Z,55.9
2018-10-18T08:01:29.657Z,55.9
2018-10-18T08:02:20.285Z,55.9
2018-10-18T08:03:10.395Z,55.9
2018-10-18T08:04:00.057Z,55.9
2018-10-18T08:04:50.384Z,55.9
2018-10-18T08:05:40.514Z,55.9
2018-10-18T08:06:30.261Z,55.8
2018-10-18T08:07:21.176Z,55.8
2018-10-18T08:08:10.868Z,55.8
2018-10-18T08:09:00.463Z,55.8
2018-10-18T08:09:51.079Z,55.8
2018-10-18T08:10:40.276Z,55.8
2018-10-18T08:11:30.629Z,55.8
2018-10-18T08:12:20.703Z,55.8
2018-10-18T08:13:12.592Z,55.8
2018-10-18T08:14:00.605Z,55.8
2018-10-18T08:14:50.892Z,55.8
2018-10-18T08:15:41.273Z,55.8
2018-10-18T08:16:31.023Z,55.8
2018-10-18T08:17:21.745Z,55.8
2018-10-18T08:18:11.211Z,55.8
2018-10-18T08:19:02.023Z,55.8
2018-10-18T08:19:51.507Z,55.8
2018-10-18T08:20:41.598Z,55.7
2018-10-18T08:21:31.653Z,55.7
2018-10-18T08:22:22.052Z,55.7
2018-10-18T08:23:11.833Z,55.7
2018-10-18T08:24:01.549Z,55.7
2018-10-18T08:24:51.973Z,55.7
2018-10-18T08:25:41.796Z,55.7
2018-10-18T08:26:32.138Z,55.7
2018-10-18T08:27:22.215Z,55.7
2018-10-18T08:28:12.439Z,55.6
2018-10-18T08:29:00.990Z,55.6
2018-10-18T08:29:52.624Z,55.6
2018-10-18T08:30:42.183Z,55.6
2018-10-18T08:31:33.778Z,55.6
2018-10-18T08:32:22.504Z,55.6
2018-10-18T08:33:12.247Z,55.6
2018-10-18T08:34:02.013Z,55.6
2018-10-18T08:34:52.332Z,55.6
2018-10-18T08:35:42.839Z,55.6
2018-10-18T08:36:32.462Z,55.6
2018-10-18T08:37:23.467Z,55.6
2018-10-18T08:38:14.267Z,55.6
2018-10-18T08:39:03.014Z,55.6
2018-10-18T08:39:52.759Z,55.6
2018-10-18T08:40:43.321Z,55.6
2018-10-18T08:41:32.566Z,55.6
2018-10-18T08:42:23.205Z,55.5
2018-10-18T08:43:13.600Z,55.5
2018-10-18T08:44:04.709Z,55.5
2018-10-18T08:44:53.094Z,55.5
2018-10-18T08:45:43.148Z,55.5
2018-10-18T08:46:33.517Z,55.5
2018-10-18T08:47:23.556Z,55.5
2018-10-18T08:48:13.623Z,55.5
2018-10-18T08:49:03.873Z,55.5
2018-10-18T08:49:54.851Z,55.4
2018-10-18T08:50:43.516Z,55.4
2018-10-18T08:51:33.591Z,55.4
2018-10-18T08:52:23.943Z,55.4
2018-10-18T09:08:51.487Z,55.6
2018-10-18T09:09:41.336Z,55.7
2018-10-18T09:10:30.837Z,55.8
2018-10-18T09:11:20.875Z,55.8
2018-10-18T09:12:11.517Z,55.8
2018-10-18T09:13:01.621Z,55.9
2018-10-18T09:13:51.328Z,55.9
2018-10-18T09:14:41.734Z,55.9
2018-10-18T09:15:31.267Z,56
2018-10-18T09:16:21.828Z,56
2018-10-18T09:17:11.881Z,56.1
2018-10-18T09:18:01.650Z,56.1
2018-10-18T09:18:52.339Z,56.1
2018-10-18T09:19:42.057Z,56.1
2018-10-18T09:20:31.851Z,56.2
2018-10-18T09:21:22.441Z,56.3
2018-10-18T09:22:12.294Z,56.3
2018-10-18T09:23:01.757Z,56.3
2018-10-18T09:23:52.788Z,56.4
2018-10-18T09:24:41.966Z,56.4
2018-10-18T09:25:33.263Z,56.4
2018-10-18T09:26:22.551Z,56.5
2018-10-18T09:27:12.038Z,56.6
2018-10-18T09:28:02.686Z,56.6
2018-10-18T09:28:52.735Z,56.6
2018-10-18T09:29:42.546Z,56.8
2018-10-18T09:30:34.108Z,56.8
2018-10-18T09:31:23.309Z,56.8
2018-10-18T09:32:13.026Z,56.9
2018-10-18T09:33:02.535Z,56.9
2018-10-18T09:33:52.303Z,56.9
2018-10-18T09:34:43.021Z,57
2018-10-18T09:35:33.311Z,57.1
2018-10-18T09:36:23.337Z,57.1
2018-10-18T09:37:14.379Z,57.1
2018-10-18T09:38:03.211Z,57.2
2018-10-18T09:38:53.478Z,57.3
2018-10-18T09:39:43.876Z,57.3
2018-10-18T09:40:33.655Z,57.3
2018-10-18T09:41:23.142Z,57.4
2018-10-18T09:42:13.770Z,57.4
2018-10-18T09:43:04.238Z,57.5
2018-10-18T09:43:53.320Z,57.6
2018-10-18T09:44:44.723Z,57.6
2018-10-18T09:45:34.014Z,57.7
2018-10-18T09:47:14.117Z,57.8
2018-10-18T09:48:04.162Z,57.8
2018-10-18T09:48:54.825Z,57.9
2018-10-18T09:49:44.545Z,57.9
2018-10-18T09:50:34.334Z,57.9
2018-10-18T09:51:24.187Z,58
2018-10-18T09:52:14.219Z,58.1
2018-10-18T09:53:04.329Z,58.1
2018-10-18T09:53:54.322Z,58.2
2018-10-18T09:54:44.662Z,58.3
2018-10-18T09:55:35.082Z,58.3
2018-10-18T09:56:24.810Z,58.3
2018-10-18T09:57:14.591Z,58.4
2018-10-18T09:58:04.623Z,58.4
2018-10-18T09:58:54.968Z,58.5
2018-10-18T10:01:24.896Z,58.7
2018-10-18T10:02:15.457Z,58.8
2018-10-18T10:03:04.722Z,58.8
2018-10-18T10:03:54.502Z,58.8
2018-10-18T10:04:45.385Z,58.9
2018-10-18T10:05:35.498Z,58.9
2018-10-18T10:06:25.531Z,59
2018-10-18T10:07:16.886Z,59.1
2018-10-18T10:08:05.371Z,59.1
2018-10-18T10:08:55.703Z,59.2
2018-10-18T10:09:45.224Z,59.2
2018-10-18T10:10:35.551Z,59.3
2018-10-18T10:11:25.414Z,59.3
2018-10-18T10:12:15.423Z,59.4
2018-10-18T10:13:06.966Z,59.4
2018-10-18T10:13:55.823Z,59.4
2018-10-18T10:14:45.860Z,59.5
2018-10-18T10:15:36.204Z,59.6
2018-10-18T10:16:26.010Z,59.6
2018-10-18T10:17:16.982Z,59.7
2018-10-18T10:18:06.834Z,59.8
2018-10-18T10:18:56.407Z,59.8
2018-10-18T10:19:46.528Z,59.8
2018-10-18T10:20:36.571Z,59.9
2018-10-18T10:21:26.635Z,59.9
2018-10-18T10:22:15.946Z,60
2018-10-18T10:23:06.198Z,60.1
2018-10-18T10:23:56.568Z,60.1
2018-10-18T10:24:48.057Z,60.1
2018-10-18T10:25:36.935Z,60.1
2018-10-18T10:26:27.005Z,60.2
2018-10-18T10:27:16.298Z,60.2
2018-10-18T10:28:06.855Z,60.3
2018-10-18T10:28:57.182Z,60.3
2018-10-18T10:29:47.257Z,60.3
2018-10-18T10:30:37.372Z,60.3
2018-10-18T10:31:27.385Z,60.3
2018-10-18T10:32:17.760Z,60.4
2018-10-18T10:33:08.751Z,60.4
2018-10-18T10:33:57.572Z,60.4
2018-10-18T10:34:47.065Z,60.4
2018-10-18T10:35:38.097Z,60.4
2018-10-18T10:36:27.759Z,60.4
2018-10-18T10:37:18.045Z,60.4
2018-10-18T10:38:07.587Z,60.4
2018-10-18T10:38:57.342Z,60.4
2018-10-18T10:39:48.019Z,60.4
2018-10-18T10:40:37.832Z,60.4
2018-10-18T10:41:27.829Z,60.4
2018-10-18T10:42:19.181Z,60.4
2018-10-18T10:43:09.130Z,60.4
2018-10-18T10:43:58.468Z,60.4
2018-10-18T10:44:48.761Z,60.4
2018-10-18T10:45:38.902Z,60.4
2018-10-18T10:46:28.214Z,60.4
2018-10-18T10:47:18.272Z,60.4
2018-10-18T10:48:09.526Z,60.4
2018-10-18T10:48:58.575Z,60.4
2018-10-18T10:49:48.738Z,60.3
2018-10-18T10:50:38.764Z,60.3
2018-10-18T10:51:28.866Z,60.3
2018-10-18T10:52:20.383Z,60.4
2018-10-18T10:53:08.203Z,60.4
2018-10-18T10:53:59.389Z,60.4
2018-10-18T10:54:48.850Z,60.4
2018-10-18T10:55:39.125Z,60.4
2018-10-18T10:56:29.258Z,60.4
2018-10-18T10:57:20.183Z,60.4
2018-10-18T10:58:10.479Z,60.4
2018-10-18T10:59:00.420Z,60.4
2018-10-18T10:59:49.219Z,60.4
2018-10-18T11:00:39.823Z,60.5
2018-10-18T11:01:29.339Z,60.5
2018-10-18T11:02:19.855Z,60.5
2018-10-18T11:03:10.211Z,60.5
2018-10-18T11:03:59.591Z,60.6
2018-10-18T11:04:49.891Z,60.6
2018-10-18T11:05:40.040Z,60.6
2018-10-18T11:06:29.989Z,60.6
2018-10-18T11:07:20.036Z,60.6
2018-10-18T11:08:11.222Z,60.6
2018-10-18T11:09:00.289Z,60.6
2018-10-18T11:09:51.277Z,60.6
2018-10-18T11:10:40.100Z,60.6
2018-10-18T11:11:30.043Z,60.6
2018-10-18T11:12:21.220Z,60.6
2018-10-18T11:13:10.188Z,60.6
2018-10-18T11:14:00.878Z,60.6
2018-10-18T11:14:50.600Z,60.6
2018-10-18T11:15:40.172Z,60.6
2018-10-18T11:16:30.453Z,60.6
2018-10-18T11:17:22.164Z,60.6
2018-10-18T11:18:11.200Z,60.6
2018-10-18T11:19:00.407Z,60.6
2018-10-18T11:19:50.951Z,60.5
2018-10-18T11:20:41.286Z,60.6
2018-10-18T11:21:31.613Z,60.5
2018-10-18T11:22:21.148Z,60.6
2018-10-18T11:23:11.217Z,60.6
2018-10-18T11:24:01.330Z,60.6
2018-10-18T11:24:52.529Z,60.6
2018-10-18T11:25:41.363Z,60.6
2018-10-18T11:26:31.477Z,60.6
2018-10-18T11:27:22.624Z,60.6
2018-10-18T11:28:11.318Z,60.6
2018-10-18T11:29:01.113Z,60.6
2018-10-18T11:29:51.739Z,60.7
2018-10-18T11:30:41.762Z,60.7
2018-10-18T11:31:31.559Z,60.7
2018-10-18T11:32:21.929Z,60.7
2018-10-18T11:33:13.257Z,60.8
2018-10-18T11:34:02.023Z,60.8
2018-10-18T11:34:52.104Z,60.8
2018-10-18T11:35:41.597Z,60.8
2018-10-18T11:36:32.237Z,60.9
2018-10-18T11:37:21.722Z,60.9
2018-10-18T11:38:13.471Z,60.9
2018-10-18T11:39:02.118Z,61
2018-10-18T11:39:52.499Z,61
2018-10-18T11:40:42.599Z,61.1
2018-10-18T11:41:32.708Z,61.1
2018-10-18T11:42:23.643Z,61.1
2018-10-18T11:43:12.717Z,61.2
2018-10-18T11:44:03.137Z,61.2
2018-10-18T11:44:52.831Z,61.3
2018-10-18T11:45:43.141Z,61.3
2018-10-18T11:46:32.951Z,61.3
2018-10-18T11:47:22.443Z,61.3
2018-10-18T11:48:13.456Z,61.4
2018-10-18T11:49:03.135Z,61.4
2018-10-18T11:49:52.657Z,61.4
2018-10-18T11:50:42.691Z,61.4
2018-10-18T11:51:34.805Z,61.4
2018-10-18T11:52:23.091Z,61.5
2018-10-18T11:53:13.480Z,61.5
2018-10-18T11:54:04.346Z,61.6
2018-10-18T11:54:53.284Z,61.6
2018-10-18T11:55:43.355Z,61.6
2018-10-18T11:56:32.934Z,61.6
2018-10-18T11:57:23.500Z,61.7
2018-10-18T11:58:13.530Z,61.7
2018-10-18T11:59:04.157Z,61.7
2018-10-18T11:59:53.450Z,61.8
2018-10-18T12:00:44.131Z,61.8
2018-10-18T12:01:33.808Z,61.8
2018-10-18T12:02:25.036Z,61.8
2018-10-18T12:03:14.198Z,61.9
2018-10-18T12:04:03.704Z,61.9
2018-10-18T12:04:54.752Z,61.9
2018-10-18T12:05:44.368Z,61.9
2018-10-18T12:06:34.192Z,61.9
2018-10-18T12:07:24.756Z,62
2018-10-18T12:08:15.554Z,62
2018-10-18T12:09:04.634Z,62.1